アシガバート の空港の天気 - METARとTAF

アシガバート空港 ( UTAA / ASB ) - トルクメニスタン アシガバート
飛行場実況気象(Metar)
観測時間07/22 23:00 TMT (07/22 18:00 UTC)
風向・風速西南西 4m/s
視程10km以上
天気現象
少しの雲 雲底高度 1520m
全天の8割程度の雲 雲底高度 1520m
全天の8割程度の雲 雲底高度 3050m
気温36℃
湿度31%
気圧1002hPa
METARUTAA 221800Z 25008KT 9999 FEW050CB BKN050 BKN100 36/16 Q1002 R88/70D TEMPO VRB30KT TS
過去の天気等 Google飛行場航空写真 Wunderground天気予報

過去48時間のMETAR

飛行場予報(TAF)
発表時間: 7/22 21:45 TMT (7/22 16:45 UTC)
予報対象時間: 22日22時 TMT ~ 23日23時 TMT
風向・風速西北西 8m/s
視程6000m
全天の4割程度の積乱雲 雲底高度 1520m
全天の4割程度の雲 雲底高度 1520m
22日22時 TMT ~ 23日1時 TMT に一時的に
風向・風速不定 15m/s
視程2000m
天気現象高い風塵 弱い雷雨
23日1時 TMT ~ 23日7時 TMT に一時的に
風向・風速西南西 6m/s
TAF UTAA 221645Z 2217/2318 30016KT 6000 SCT050CB SCT050 TX41/2311Z 530009
TEMPO 2217/2220 VRB30KT 2000 BLDU -TSRA
TEMPO 2220/2302 24012KT